createdAt,value
2019-05-02T00:00:56.987Z,12.35
2019-05-02T00:03:27.932Z,12.17
2019-05-02T00:05:58.718Z,11.71
2019-05-02T00:08:32.992Z,11.93
2019-05-02T00:11:03.559Z,11.87
2019-05-02T00:13:33.186Z,11.88
2019-05-02T00:16:02.726Z,11.79
2019-05-02T00:18:37.259Z,12.03
2019-05-02T00:21:08.145Z,12.07
2019-05-02T00:23:37.841Z,12.05
2019-05-02T00:26:07.708Z,12.07
2019-05-02T00:28:37.438Z,11.74
2019-05-02T00:31:11.571Z,11.88
2019-05-02T00:33:38.874Z,12.08
2019-05-02T00:36:09.098Z,11.75
2019-05-02T00:38:39.955Z,11.80
2019-05-02T00:41:09.778Z,11.79
2019-05-02T00:43:39.402Z,11.80
2019-05-02T00:46:09.138Z,11.89
2019-05-02T00:48:40.368Z,11.84
2019-05-02T00:51:14.172Z,11.89
2019-05-02T00:53:48.283Z,11.92
2019-05-02T00:56:18.310Z,11.79
2019-05-02T00:58:47.907Z,11.83
2019-05-02T01:01:29.624Z,11.85
2019-05-02T01:03:59.210Z,12.03
2019-05-02T01:06:29.401Z,11.67
2019-05-02T01:08:59.275Z,11.82
2019-05-02T01:11:32.234Z,11.80
2019-05-02T01:14:00.407Z,11.86
2019-05-02T01:16:30.145Z,12.05
2019-05-02T01:18:59.887Z,12.02
2019-05-02T01:21:29.462Z,11.91
2019-05-02T01:24:02.998Z,11.73
2019-05-02T01:26:32.116Z,11.69
2019-05-02T01:29:09.371Z,11.78
2019-05-02T01:31:56.790Z,11.73
2019-05-02T01:34:44.328Z,11.84
2019-05-02T01:37:24.541Z,11.88
2019-05-02T01:39:54.612Z,11.76
2019-05-02T01:42:24.239Z,11.63
2019-05-02T01:44:54.043Z,11.73
2019-05-02T01:47:29.143Z,11.62
2019-05-02T01:49:57.095Z,11.61
2019-05-02T01:52:27.377Z,11.58
2019-05-02T01:55:00.087Z,11.86
2019-05-02T01:57:29.631Z,11.54
2019-05-02T01:59:59.231Z,11.55
2019-05-02T02:02:32.829Z,11.39
2019-05-02T02:05:00.198Z,11.15
2019-05-02T02:07:29.735Z,11.44
2019-05-02T02:09:59.423Z,11.57
2019-05-02T02:12:29.012Z,11.65
2019-05-02T02:14:58.655Z,11.87
2019-05-02T02:17:28.455Z,11.73
2019-05-02T02:20:03.892Z,11.79
2019-05-02T02:22:44.241Z,11.83
2019-05-02T02:25:27.395Z,11.36
2019-05-02T02:27:59.596Z,11.15
2019-05-02T02:30:28.420Z,11.28
2019-05-02T02:33:00.670Z,11.57
2019-05-02T02:35:29.609Z,11.40
2019-05-02T02:37:59.217Z,11.55
2019-05-02T02:40:34.016Z,11.21
2019-05-02T02:43:10.131Z,11.41
2019-05-02T02:45:58.128Z,11.40
2019-05-02T02:48:25.994Z,11.15
2019-05-02T02:50:55.592Z,11.27
2019-05-02T02:53:31.404Z,11.25
2019-05-02T02:56:05.604Z,11.29
2019-05-02T02:58:44.262Z,11.35
2019-05-02T03:01:06.930Z,11.26
2019-05-02T03:03:36.722Z,11.30
2019-05-02T03:06:08.164Z,11.38
2019-05-02T03:08:46.650Z,11.07
2019-05-02T03:11:10.911Z,11.37
2019-05-02T03:13:52.504Z,11.16
2019-05-02T03:16:20.670Z,11.37
2019-05-02T03:18:50.342Z,11.21
2019-05-02T03:21:22.449Z,11.33
2019-05-02T03:24:01.378Z,11.37
2019-05-02T03:26:23.900Z,11.35
2019-05-02T03:28:58.698Z,11.43
2019-05-02T03:31:30.176Z,11.46
2019-05-02T03:34:00.869Z,11.31
2019-05-02T03:36:35.760Z,11.27
2019-05-02T03:39:13.955Z,11.60
2019-05-02T03:41:32.828Z,11.44
2019-05-02T03:44:11.110Z,11.30
2019-05-02T03:46:34.907Z,11.41
2019-05-02T03:49:09.271Z,11.47
2019-05-02T03:51:37.061Z,11.65
2019-05-02T03:54:10.377Z,11.81
2019-05-02T03:56:44.784Z,11.60
2019-05-02T03:59:10.464Z,11.62
2019-05-02T04:01:41.364Z,11.74
2019-05-02T04:04:14.252Z,11.71
2019-05-02T04:06:44.740Z,11.63
2019-05-02T04:09:32.169Z,11.57
2019-05-02T04:12:01.489Z,11.81
2019-05-02T04:14:38.114Z,11.87
2019-05-02T04:17:03.317Z,11.92
2019-05-02T04:19:34.930Z,11.89
2019-05-02T04:22:08.425Z,11.60
2019-05-02T04:24:37.113Z,11.66
2019-05-02T04:27:06.923Z,11.91
2019-05-02T04:29:37.556Z,11.94
2019-05-02T04:32:11.446Z,12.07
2019-05-02T04:34:38.861Z,11.68
2019-05-02T04:37:08.501Z,11.82
2019-05-02T04:39:39.229Z,11.84
2019-05-02T04:42:15.962Z,11.93
2019-05-02T04:44:52.966Z,11.92
2019-05-02T04:47:17.347Z,12.04
2019-05-02T04:49:43.590Z,11.79
2019-05-02T04:52:16.876Z,11.87
2019-05-02T04:54:48.781Z,11.92
2019-05-02T04:57:18.808Z,11.87
2019-05-02T04:59:50.517Z,12.09
2019-05-02T05:02:29.293Z,11.96
2019-05-02T05:04:51.515Z,12.03
2019-05-02T05:07:21.331Z,12.03
2019-05-02T05:09:58.196Z,12.34
2019-05-02T05:12:23.586Z,12.31
2019-05-02T05:14:53.293Z,12.18
2019-05-02T05:17:25.222Z,12.11
2019-05-02T05:19:54.489Z,12.05
2019-05-02T05:22:24.163Z,12.31
2019-05-02T05:24:58.675Z,12.42
2019-05-02T05:27:28.289Z,12.43
2019-05-02T05:29:59.487Z,12.57
2019-05-02T05:32:29.578Z,12.58
2019-05-02T05:35:03.185Z,12.63
2019-05-02T05:37:30.634Z,12.40
2019-05-02T05:40:04.074Z,12.50
2019-05-02T05:42:33.706Z,12.51
2019-05-02T05:45:08.741Z,12.43
2019-05-02T05:47:35.213Z,12.51
2019-05-02T05:50:08.124Z,12.71
2019-05-02T05:52:38.738Z,12.63
2019-05-02T05:55:12.680Z,12.45
2019-05-02T05:57:40.682Z,12.44
2019-05-02T06:00:15.583Z,12.60
2019-05-02T06:02:52.758Z,12.65
2019-05-02T06:05:13.676Z,12.59
2019-05-02T06:07:44.878Z,12.45
2019-05-02T06:10:15.888Z,12.60
2019-05-02T06:12:45.524Z,12.77
2019-05-02T06:15:15.384Z,12.68
2019-05-02T06:17:45.146Z,12.56
2019-05-02T06:20:15.375Z,12.75
2019-05-02T06:22:45.027Z,12.43
2019-05-02T06:25:15.229Z,12.48
2019-05-02T06:27:44.939Z,12.58
2019-05-02T06:30:16.568Z,12.60
2019-05-02T06:32:49.926Z,12.68
2019-05-02T06:35:21.099Z,12.94
2019-05-02T06:37:50.055Z,13.26
2019-05-02T06:40:23.151Z,13.18
2019-05-02T06:42:52.904Z,13.11
2019-05-02T06:45:22.640Z,13.13
2019-05-02T06:47:53.321Z,13.15
2019-05-02T06:50:24.722Z,13.66
2019-05-02T06:52:54.306Z,13.31
2019-05-02T06:55:28.118Z,13.47
2019-05-02T06:57:57.086Z,13.54
2019-05-02T07:00:35.417Z,13.33
2019-05-02T07:02:59.260Z,13.42
2019-05-02T07:05:29.024Z,13.62
2019-05-02T07:07:58.666Z,13.56
2019-05-02T07:10:33.651Z,13.61
2019-05-02T07:13:10.077Z,13.81
2019-05-02T07:15:33.644Z,14.13
2019-05-02T07:18:14.143Z,13.66
2019-05-02T07:20:44.122Z,13.73
2019-05-02T07:23:16.169Z,13.65
2019-05-02T07:25:45.991Z,13.90
2019-05-02T07:28:15.865Z,13.94
2019-05-02T07:30:45.707Z,13.58
2019-05-02T07:33:15.932Z,13.69
2019-05-02T07:35:45.609Z,13.83
2019-05-02T07:38:15.370Z,13.98
2019-05-02T07:40:48.163Z,13.53
2019-05-02T07:43:21.159Z,13.67
2019-05-02T07:45:48.368Z,13.84
2019-05-02T07:48:19.098Z,13.88
2019-05-02T07:50:51.007Z,13.70
2019-05-02T07:53:20.784Z,13.96
2019-05-02T07:55:50.501Z,13.97
2019-05-02T07:58:20.272Z,13.82
2019-05-02T08:00:50.070Z,13.45
2019-05-02T08:03:20.141Z,13.60
2019-05-02T08:05:54.363Z,13.32
2019-05-02T08:08:25.082Z,13.49
2019-05-02T08:10:53.824Z,13.33
2019-05-02T08:13:24.252Z,13.58
2019-05-02T08:15:53.982Z,13.76
2019-05-02T08:18:30.283Z,13.74
2019-05-02T08:20:57.579Z,13.83
2019-05-02T08:23:27.858Z,13.72
2019-05-02T08:25:57.762Z,13.62
2019-05-02T08:28:34.653Z,13.56
2019-05-02T08:31:04.296Z,13.17
2019-05-02T08:33:34.732Z,13.47
2019-05-02T08:36:05.378Z,13.58
2019-05-02T08:38:35.252Z,13.92
2019-05-02T08:41:05.462Z,14.00
2019-05-02T08:43:35.159Z,13.98
2019-05-02T08:46:09.402Z,13.93
2019-05-02T08:48:41.725Z,13.79
2019-05-02T08:51:08.389Z,13.89
2019-05-02T08:53:38.087Z,13.99
2019-05-02T08:56:07.795Z,13.66
2019-05-02T08:58:37.483Z,13.79
2019-05-02T09:01:09.276Z,13.98
2019-05-02T09:03:54.820Z,14.20
2019-05-02T09:06:09.895Z,14.25
2019-05-02T09:08:40.600Z,14.27
2019-05-02T09:11:14.165Z,13.89
2019-05-02T09:13:42.174Z,13.85
2019-05-02T09:16:12.143Z,14.26
2019-05-02T09:18:50.582Z,14.10
2019-05-02T09:21:13.126Z,14.40
2019-05-02T09:23:43.984Z,14.20
2019-05-02T09:26:13.744Z,14.25
2019-05-02T09:28:43.362Z,14.23
2019-05-02T09:31:14.712Z,14.42
2019-05-02T09:33:46.782Z,14.54
2019-05-02T09:36:15.880Z,14.42
2019-05-02T09:38:48.770Z,14.28
2019-05-02T09:41:19.435Z,14.36
2019-05-02T09:43:48.812Z,14.28
2019-05-02T09:46:18.480Z,14.29
2019-05-02T09:48:48.110Z,14.08
2019-05-02T09:51:17.946Z,13.88
2019-05-02T09:53:47.708Z,13.90
2019-05-02T09:56:17.650Z,14.14
2019-05-02T09:58:49.301Z,14.44
2019-05-02T10:01:23.778Z,14.44
2019-05-02T10:03:53.516Z,14.32
2019-05-02T10:06:23.549Z,14.14
2019-05-02T10:08:53.649Z,14.18
2019-05-02T10:11:26.133Z,14.04
2019-05-02T10:13:55.490Z,13.89
2019-05-02T10:16:27.330Z,14.15
2019-05-02T10:19:00.388Z,14.15
2019-05-02T10:21:28.129Z,14.62
2019-05-02T10:23:59.572Z,14.47
2019-05-02T10:26:29.210Z,14.86
2019-05-02T10:28:58.876Z,14.75
2019-05-02T10:31:33.373Z,14.59
2019-05-02T10:34:02.227Z,14.40
2019-05-02T10:36:32.570Z,14.47
2019-05-02T10:39:02.689Z,14.60
2019-05-02T10:41:39.468Z,14.76
2019-05-02T10:44:03.970Z,15.01
2019-05-02T10:46:52.197Z,15.28
2019-05-02T10:49:23.130Z,15.46
2019-05-02T10:51:54.396Z,15.41
2019-05-02T10:54:27.913Z,15.45
2019-05-02T10:56:56.860Z,15.06
2019-05-02T10:59:26.517Z,15.18
2019-05-02T11:02:13.845Z,15.73
2019-05-02T11:04:45.328Z,15.71
2019-05-02T11:07:22.759Z,16.40
2019-05-02T11:09:49.395Z,16.84
2019-05-02T11:12:25.560Z,16.69
2019-05-02T11:15:09.425Z,16.87
2019-05-02T11:17:42.300Z,17.38
2019-05-02T11:20:12.765Z,17.48
2019-05-02T11:22:42.844Z,17.42
2019-05-02T11:25:12.979Z,17.68
2019-05-02T11:27:42.638Z,17.35
2019-05-02T11:30:16.799Z,17.23
2019-05-02T11:32:44.114Z,17.63
2019-05-02T11:35:13.767Z,17.49
2019-05-02T11:37:43.447Z,17.38
2019-05-02T11:40:13.258Z,17.34
2019-05-02T11:42:42.785Z,17.54
2019-05-02T11:45:12.700Z,17.66
2019-05-02T11:47:42.437Z,17.79
2019-05-02T11:50:12.180Z,17.86
2019-05-02T11:52:42.395Z,17.70
2019-05-02T11:55:13.063Z,17.72
2019-05-02T11:57:43.002Z,17.51
2019-05-02T12:00:13.231Z,17.19
2019-05-02T12:02:42.699Z,17.09
2019-05-02T12:05:16.746Z,17.05
2019-05-02T12:07:46.962Z,17.01
2019-05-02T12:10:16.801Z,16.78
2019-05-02T12:12:46.330Z,16.59
2019-05-02T12:15:16.096Z,16.87
2019-05-02T12:17:45.979Z,16.90
2019-05-02T12:20:15.694Z,16.88
2019-05-02T12:22:45.333Z,16.64
2019-05-02T12:25:15.080Z,16.88
2019-05-02T12:27:44.813Z,16.86
2019-05-02T12:30:15.141Z,16.97
2019-05-02T12:32:45.194Z,17.21
2019-05-02T12:35:14.923Z,17.01
2019-05-02T12:37:46.983Z,17.28
2019-05-02T12:40:16.370Z,17.15
2019-05-02T12:42:52.471Z,16.89
2019-05-02T12:45:21.988Z,16.64
2019-05-02T12:47:52.321Z,16.22
2019-05-02T12:50:23.405Z,16.45
2019-05-02T12:52:55.664Z,16.56
2019-05-02T12:55:24.611Z,16.55
2019-05-02T12:57:54.244Z,16.45
2019-05-02T13:00:24.129Z,16.43
2019-05-02T13:03:11.655Z,16.64
2019-05-02T13:05:42.616Z,16.88
2019-05-02T13:08:12.538Z,16.61
2019-05-02T13:10:48.388Z,16.68
2019-05-02T13:13:18.751Z,17.07
2019-05-02T13:15:48.400Z,17.29
2019-05-02T13:18:22.644Z,17.06
2019-05-02T13:20:50.098Z,17.32
2019-05-02T13:23:37.321Z,17.59
2019-05-02T13:26:18.442Z,17.77
2019-05-02T13:28:41.812Z,17.70
2019-05-02T13:31:28.947Z,17.26
2019-05-02T13:34:01.842Z,17.14
2019-05-02T13:36:45.280Z,17.00
2019-05-02T13:39:21.887Z,17.18
2019-05-02T13:41:52.162Z,16.61
2019-05-02T13:44:32.670Z,16.62
2019-05-02T13:47:03.423Z,16.96
2019-05-02T13:49:33.121Z,17.05
2019-05-02T13:52:03.548Z,16.84
2019-05-02T13:54:34.519Z,17.00
2019-05-02T13:57:04.251Z,16.95
2019-05-02T13:59:33.918Z,16.74
2019-05-02T14:02:07.232Z,16.66
2019-05-02T14:04:36.753Z,16.61
2019-05-02T14:07:07.701Z,16.77
2019-05-02T14:09:45.326Z,16.75
2019-05-02T14:12:19.071Z,16.74
2019-05-02T14:14:48.660Z,16.59
2019-05-02T14:17:19.885Z,16.65
2019-05-02T14:19:49.630Z,16.84
2019-05-02T14:22:19.543Z,16.85
2019-05-02T14:24:49.489Z,16.82
2019-05-02T14:27:19.177Z,16.68
2019-05-02T14:29:48.962Z,16.77
2019-05-02T14:32:23.201Z,16.67
2019-05-02T14:34:50.050Z,16.61
2019-05-02T14:37:19.684Z,16.61
2019-05-02T14:39:52.442Z,16.73
2019-05-02T14:42:26.161Z,16.27
2019-05-02T14:45:05.489Z,16.15
2019-05-02T14:47:25.213Z,16.05
2019-05-02T14:49:56.755Z,16.09
2019-05-02T14:52:26.512Z,16.28
2019-05-02T14:54:57.164Z,16.38
2019-05-02T14:57:27.390Z,16.63
2019-05-02T14:59:59.554Z,16.59
2019-05-02T15:02:49.049Z,16.59
2019-05-02T15:05:19.353Z,16.67
2019-05-02T15:07:47.428Z,16.64
2019-05-02T15:10:17.573Z,16.24
2019-05-02T15:12:51.696Z,16.08
2019-05-02T15:15:23.088Z,16.22
2019-05-02T15:17:53.155Z,16.12
2019-05-02T15:20:35.910Z,16.27
2019-05-02T15:22:54.140Z,16.18
2019-05-02T15:25:23.823Z,15.84
2019-05-02T15:27:58.195Z,15.57
2019-05-02T15:30:26.263Z,15.61
2019-05-02T15:33:03.315Z,15.67
2019-05-02T15:35:37.571Z,15.64
2019-05-02T15:38:07.218Z,15.42
2019-05-02T15:40:46.987Z,15.33
2019-05-02T15:43:09.594Z,15.54
2019-05-02T15:45:41.946Z,15.66
2019-05-02T15:48:14.579Z,15.97
2019-05-02T15:50:50.230Z,16.01
2019-05-02T15:53:16.912Z,16.05
2019-05-02T15:55:46.562Z,16.22
2019-05-02T15:58:25.942Z,15.92
2019-05-02T16:00:56.514Z,16.03
2019-05-02T16:03:26.220Z,15.91
2019-05-02T16:05:55.771Z,16.02
2019-05-02T16:08:27.186Z,15.98
2019-05-02T16:10:57.261Z,15.77
2019-05-02T16:13:28.363Z,15.63
2019-05-02T16:16:02.236Z,15.16
2019-05-02T16:18:29.249Z,14.86
2019-05-02T16:21:07.272Z,14.53
2019-05-02T16:23:35.806Z,14.43
2019-05-02T16:26:08.932Z,14.34
2019-05-02T16:28:44.154Z,14.32
2019-05-02T16:31:12.546Z,14.35
2019-05-02T16:33:42.346Z,14.25
2019-05-02T16:36:12.719Z,14.22
2019-05-02T16:38:43.407Z,14.15
2019-05-02T16:41:12.974Z,14.57
2019-05-02T16:43:42.641Z,14.52
2019-05-02T16:46:14.119Z,14.61
2019-05-02T16:48:45.008Z,14.56
2019-05-02T16:51:30.063Z,14.52
2019-05-02T16:53:48.515Z,14.68
2019-05-02T16:56:18.236Z,14.56
2019-05-02T16:58:48.251Z,14.65
2019-05-02T17:01:26.630Z,14.75
2019-05-02T17:03:49.705Z,14.96
2019-05-02T17:06:22.456Z,14.92
2019-05-02T17:08:57.521Z,14.82
2019-05-02T17:11:32.390Z,14.65
2019-05-02T17:14:02.156Z,14.65
2019-05-02T17:16:31.651Z,14.62
2019-05-02T17:19:01.746Z,14.59
2019-05-02T17:21:52.240Z,14.63
2019-05-02T17:24:04.904Z,14.72
2019-05-02T17:26:34.829Z,14.94
2019-05-02T17:29:04.580Z,14.50
2019-05-02T17:31:34.168Z,14.17
2019-05-02T17:34:03.833Z,13.98
2019-05-02T17:36:36.632Z,13.63
2019-05-02T17:39:08.447Z,13.69
2019-05-02T17:41:42.346Z,13.82
2019-05-02T17:44:12.983Z,13.93
2019-05-02T17:46:42.746Z,13.98
2019-05-02T17:49:12.181Z,14.03
2019-05-02T17:52:05.704Z,13.88
2019-05-02T17:54:31.616Z,13.45
2019-05-02T17:57:02.162Z,13.54
2019-05-02T17:59:34.637Z,13.41
2019-05-02T18:02:06.506Z,13.32
2019-05-02T18:04:35.571Z,13.45
2019-05-02T18:07:07.903Z,13.31
2019-05-02T18:09:37.589Z,13.17
2019-05-02T18:12:11.897Z,13.03
2019-05-02T18:14:38.581Z,13.25
2019-05-02T18:17:08.731Z,13.07
2019-05-02T18:19:38.255Z,13.09
2019-05-02T18:22:21.082Z,13.09
2019-05-02T18:24:44.807Z,13.31
2019-05-02T18:27:12.732Z,13.41
2019-05-02T18:29:45.418Z,13.42
2019-05-02T18:32:17.539Z,13.38
2019-05-02T18:34:46.920Z,13.34
2019-05-02T18:37:17.129Z,13.34
2019-05-02T18:39:53.336Z,13.29
2019-05-02T18:42:22.107Z,13.38
2019-05-02T18:44:53.124Z,13.31
2019-05-02T18:47:24.814Z,13.25
2019-05-02T18:50:00.680Z,13.38
2019-05-02T18:52:35.709Z,13.14
2019-05-02T18:54:56.799Z,13.13
2019-05-02T18:57:26.409Z,13.07
2019-05-02T18:59:58.176Z,13.15
2019-05-02T19:02:32.561Z,13.17
2019-05-02T19:04:59.545Z,12.88
2019-05-02T19:07:33.022Z,12.82
2019-05-02T19:10:05.818Z,12.92
2019-05-02T19:12:32.760Z,12.70
2019-05-02T19:15:07.013Z,12.72
2019-05-02T19:17:38.433Z,12.88
2019-05-02T19:20:29.260Z,12.69
2019-05-02T19:22:59.025Z,12.58
2019-05-02T19:25:28.562Z,12.53
2019-05-02T19:28:05.872Z,12.69
2019-05-02T19:30:37.202Z,12.75
2019-05-02T19:33:08.417Z,12.50
2019-05-02T19:35:43.255Z,12.61
2019-05-02T19:38:11.774Z,12.66
2019-05-02T19:40:42.798Z,12.52
2019-05-02T19:43:14.736Z,12.52
2019-05-02T19:45:45.691Z,12.41
2019-05-02T19:48:15.385Z,12.52
2019-05-02T19:50:46.059Z,12.54
2019-05-02T19:53:18.512Z,12.72
2019-05-02T19:55:47.337Z,12.86
2019-05-02T19:58:17.198Z,12.75
2019-05-02T20:00:47.555Z,12.58
2019-05-02T20:03:21.578Z,12.81
2019-05-02T20:05:49.017Z,12.57
2019-05-02T20:08:22.826Z,12.83
2019-05-02T20:10:56.719Z,12.90
2019-05-02T20:13:28.040Z,12.98
2019-05-02T20:16:12.930Z,12.91
2019-05-02T20:18:47.073Z,12.98
2019-05-02T20:21:23.235Z,13.03
2019-05-02T20:23:47.848Z,13.12
2019-05-02T20:26:18.012Z,12.85
2019-05-02T20:28:48.324Z,12.83
2019-05-02T20:31:18.099Z,12.58
2019-05-02T20:33:47.814Z,12.79
2019-05-02T20:36:17.927Z,12.66
2019-05-02T20:38:50.244Z,12.58
2019-05-02T20:41:22.382Z,12.54
2019-05-02T20:43:52.235Z,12.61
2019-05-02T20:46:22.043Z,12.79
2019-05-02T20:48:52.585Z,12.74
2019-05-02T20:51:23.013Z,12.69
2019-05-02T20:53:52.858Z,12.76
2019-05-02T20:56:23.119Z,12.69
2019-05-02T20:58:54.545Z,12.64
2019-05-02T21:01:24.338Z,12.45
2019-05-02T21:03:53.967Z,12.38
2019-05-02T21:06:37.568Z,12.31
2019-05-02T21:09:02.204Z,12.23
2019-05-02T21:11:32.460Z,12.11
2019-05-02T21:14:02.472Z,12.03
2019-05-02T21:16:32.330Z,11.90
2019-05-02T21:19:02.390Z,11.98
2019-05-02T21:21:33.896Z,12.03
2019-05-02T21:24:04.326Z,12.21
2019-05-02T21:26:33.994Z,12.14
2019-05-02T21:34:22.703Z,12.11
2019-05-02T21:36:52.522Z,12.14
2019-05-02T21:39:22.598Z,12.15
2019-05-02T21:41:52.926Z,12.06
2019-05-02T21:44:22.583Z,12.11
2019-05-02T21:46:52.198Z,12.13
2019-05-02T21:49:38.229Z,12.12
2019-05-02T21:52:09.552Z,12.34
2019-05-02T21:54:58.713Z,12.12
2019-05-02T21:57:28.264Z,11.83
2019-05-02T21:59:57.814Z,11.40
2019-05-02T22:02:28.719Z,11.45
2019-05-02T22:04:58.359Z,11.60
2019-05-02T22:07:28.074Z,11.45
2019-05-02T22:09:57.780Z,11.33
2019-05-02T22:12:27.344Z,11.54
2019-05-02T22:14:57.027Z,11.48
2019-05-02T22:17:26.593Z,11.56
2019-05-02T22:19:56.234Z,11.64
2019-05-02T22:22:25.803Z,11.61
2019-05-02T22:24:56.475Z,11.69
2019-05-02T22:27:26.144Z,11.67
2019-05-02T22:29:55.754Z,11.76
2019-05-02T22:32:25.511Z,11.76
2019-05-02T22:34:55.994Z,11.70
2019-05-02T22:37:26.364Z,11.44
2019-05-02T22:40:03.647Z,11.29
2019-05-02T22:42:33.323Z,11.43
2019-05-02T22:45:04.583Z,11.40
2019-05-02T22:47:34.602Z,11.38
2019-05-02T22:50:06.640Z,11.42
2019-05-02T22:52:36.258Z,11.35
2019-05-02T22:55:09.548Z,11.29
2019-05-02T22:57:41.509Z,11.32
2019-05-02T23:00:11.191Z,11.26
2019-05-02T23:02:41.863Z,11.40
2019-05-02T23:05:12.410Z,11.54
2019-05-02T23:07:45.387Z,11.52
2019-05-02T23:10:16.399Z,11.38
2019-05-02T23:12:46.018Z,11.06
2019-05-02T23:15:15.838Z,11.07
2019-05-02T23:17:45.406Z,11.16
2019-05-02T23:20:15.309Z,11.03
2019-05-02T23:22:44.903Z,10.86
2019-05-02T23:25:14.786Z,10.72
2019-05-02T23:27:46.179Z,10.64
2019-05-02T23:30:18.075Z,10.63
2019-05-02T23:32:51.250Z,10.49
2019-05-02T23:35:21.445Z,10.62
2019-05-02T23:37:52.958Z,10.50
2019-05-02T23:40:23.192Z,10.57
2019-05-02T23:42:52.831Z,10.36
2019-05-02T23:45:22.706Z,10.32
2019-05-02T23:47:52.882Z,10.39
2019-05-02T23:50:22.991Z,10.29
2019-05-02T23:52:53.578Z,10.09
2019-05-02T23:55:23.288Z,10.35
2019-05-02T23:57:52.993Z,10.30
